Santa Rosa, CA

4:06 AM PST on February 07, 2016 (GMT -0800)
APRSWXNET | | Change Station
CLOSE
Current Station
Personal Weather Station
Location: Santa Rosa, CA
Elevation: 1099 ft
Nearby Weather Stations

Elev 1099 ft 38.56 °N, 122.68 °W | Updated 20 minutes ago

Clear
Clear
55 °F
Feels Like 55 °F
N
1
Wind Variable Wind from NW
Gusts 4.0 mph

Today
High -- | Low -- °F
--% Chance of Precip.
Yesterday
High -- | Low -- °F
Precip. -- in
Pressure 30.26 in
Visibility 7.0 miles
Clouds Clear
Dew Point 47 °F
Humidity 73%
Rainfall in
Snow Depth Not available.
7:10 AM 5:39 PM
Waning Crescent, 2% visible
METAR KSTS 071153Z 35003KT 7SM CLR 06/06 A3028 RMK AO2 SLP246 T00610056 10100 20050 58009
Pressure 30.26 in
Visibility 7.0 miles
Clouds Clear
Dew Point 47 °F
Humidity 73%
Rainfall in
Snow Depth Not available.
7:10 AM 5:39 PM
Waning Crescent, 2% visible
METAR KSTS 071153Z 35003KT 7SM CLR 06/06 A3028 RMK AO2 SLP246 T00610056 10100 20050 58009

10-Day Weather Forecast

Almanac

Astronomy

Feb. 07, 2016 Rise Set
Actual Time
Civil Twilight
Nautical Twilight
Astronomical Twilight
Moon
Length of Visible Light
Length of Day
Tomorrow will be .
, % of the Moon is Illuminated

Today's Extremes

State Highs State Lows

Community

WunderPhotos

Upload Photos

1,891,182 photos uploaded!

WunderBlog® & News

Nearby

Air Quality

  Air Quality AQ Index Pollutant
Not available.

Snow Depth

Station Depth Elevation

Earthquake Activity

City Distance Mag. Time & Date
Minimum magnitude displayed is 2.5.

Coastal Water Temperatures

Place Temperature

Stations

Nearby Weather Stations

Station Location Temp. Windchill Dew Point Humidity Wind Precip. Elev Updated Type
                   

Watches & Warnings

There are currently no watches in effect.